createdAt,value
2022-08-18T00:01:14.619Z,19.20
2022-08-18T00:03:56.580Z,19.20
2022-08-18T00:06:28.320Z,19.20
2022-08-18T00:08:56.338Z,19.10
2022-08-18T00:11:23.928Z,19.10
2022-08-18T00:13:50.719Z,19.10
2022-08-18T00:16:17.495Z,19.00
2022-08-18T00:18:44.320Z,19.00
2022-08-18T00:21:11.148Z,19.00
2022-08-18T00:23:38.834Z,18.90
2022-08-18T00:26:05.813Z,18.90
2022-08-18T00:28:32.583Z,18.80
2022-08-18T00:30:59.387Z,18.80
2022-08-18T00:33:26.431Z,18.70
2022-08-18T00:35:53.461Z,18.70
2022-08-18T00:38:23.574Z,18.80
2022-08-18T00:40:52.717Z,18.70
2022-08-18T00:43:32.589Z,18.70
2022-08-18T00:45:59.550Z,18.70
2022-08-18T00:48:29.029Z,18.70
2022-08-18T00:50:57.453Z,18.70
2022-08-18T00:53:29.481Z,18.60
2022-08-18T00:55:58.975Z,18.70
2022-08-18T00:58:32.388Z,18.60
2022-08-18T01:01:06.335Z,18.60
2022-08-18T01:03:34.230Z,18.60
2022-08-18T01:06:07.174Z,18.50
2022-08-18T01:08:34.007Z,18.50
2022-08-18T01:11:02.749Z,18.60
2022-08-18T01:13:31.764Z,18.60
2022-08-18T01:15:58.825Z,18.60
2022-08-18T01:18:44.006Z,18.60
2022-08-18T01:21:33.093Z,18.60
2022-08-18T01:24:02.529Z,18.60
2022-08-18T01:26:30.427Z,18.50
2022-08-18T01:29:05.013Z,18.50
2022-08-18T01:31:33.484Z,18.50
2022-08-18T01:34:01.279Z,18.60
2022-08-18T01:36:29.618Z,18.50
2022-08-18T01:38:56.843Z,18.50
2022-08-18T01:41:30.126Z,18.40
2022-08-18T01:43:59.169Z,18.30
2022-08-18T01:46:27.537Z,18.30
2022-08-18T01:48:54.555Z,18.20
2022-08-18T01:51:34.721Z,18.10
2022-08-18T01:54:07.840Z,18.20
2022-08-18T01:56:34.626Z,18.20
2022-08-18T01:59:01.425Z,18.30
2022-08-18T02:01:36.311Z,18.20
2022-08-18T02:04:30.939Z,18.20
2022-08-18T02:06:53.281Z,18.30
2022-08-18T02:09:23.789Z,18.20
2022-08-18T02:11:51.302Z,18.20
2022-08-18T02:14:26.987Z,18.20
2022-08-18T02:16:59.423Z,18.20
2022-08-18T02:19:36.901Z,18.10
2022-08-18T02:22:04.666Z,18.10
2022-08-18T02:24:31.694Z,18.10
2022-08-18T02:26:58.498Z,18.10
2022-08-18T02:29:25.296Z,18.10
2022-08-18T02:31:52.091Z,18.20
2022-08-18T02:34:18.878Z,18.20
2022-08-18T02:36:45.705Z,18.20
2022-08-18T02:39:12.775Z,18.20
2022-08-18T02:41:39.650Z,18.20
2022-08-18T02:44:07.344Z,18.20
2022-08-18T02:46:34.446Z,18.20
2022-08-18T02:49:01.290Z,18.10
2022-08-18T02:51:28.243Z,18.20
2022-08-18T02:53:55.061Z,18.10
2022-08-18T02:56:40.348Z,18.20
2022-08-18T02:59:13.533Z,18.20
2022-08-18T03:01:42.222Z,18.20
2022-08-18T03:04:09.981Z,18.10
2022-08-18T03:06:37.461Z,18.20
2022-08-18T03:09:05.425Z,18.20
2022-08-18T03:11:32.280Z,18.20
2022-08-18T03:14:00.531Z,18.10
2022-08-18T03:16:27.698Z,18.10
2022-08-18T03:18:54.687Z,18.20
2022-08-18T03:21:22.597Z,18.10
2022-08-18T03:24:00.755Z,18.10
2022-08-18T03:26:30.040Z,18.20
2022-08-18T03:28:58.225Z,18.10
2022-08-18T03:31:27.706Z,18.00
2022-08-18T03:33:59.198Z,18.00
2022-08-18T03:36:29.034Z,18.00
2022-08-18T03:38:56.006Z,18.10
2022-08-18T03:41:58.001Z,18.00
2022-08-18T03:44:11.815Z,18.10
2022-08-18T03:46:40.873Z,18.20
2022-08-18T03:49:07.749Z,18.30
2022-08-18T03:51:34.893Z,18.40
2022-08-18T03:54:02.975Z,18.50
2022-08-18T03:56:34.654Z,18.60
2022-08-18T03:59:03.514Z,18.70
2022-08-18T04:01:33.050Z,18.80
2022-08-18T04:04:02.303Z,18.90
2022-08-18T04:06:31.483Z,19.00
2022-08-18T04:09:00.412Z,19.10
2022-08-18T04:11:28.558Z,19.20
2022-08-18T04:14:02.859Z,19.20
2022-08-18T04:16:30.865Z,19.30
2022-08-18T04:19:02.006Z,19.50
2022-08-18T04:21:31.538Z,19.60
2022-08-18T04:24:03.132Z,19.70
2022-08-18T04:26:29.974Z,19.70
2022-08-18T04:28:56.770Z,19.70
2022-08-18T04:31:24.945Z,19.70
2022-08-18T04:33:51.879Z,19.90
2022-08-18T04:36:20.888Z,20.30
2022-08-18T04:38:47.835Z,20.50
2022-08-18T04:41:14.749Z,20.80
2022-08-18T04:43:42.204Z,21.00
2022-08-18T04:46:09.070Z,20.80
2022-08-18T04:48:37.767Z,20.80
2022-08-18T04:51:09.319Z,21.10
2022-08-18T04:53:45.803Z,21.20
2022-08-18T04:56:15.997Z,21.20
2022-08-18T04:58:52.169Z,21.20
2022-08-18T05:01:22.055Z,21.10
2022-08-18T05:03:50.608Z,21.20
2022-08-18T05:06:18.167Z,21.40
2022-08-18T05:08:45.034Z,21.40
2022-08-18T05:11:11.917Z,21.50
2022-08-18T05:13:39.031Z,21.70
2022-08-18T05:16:11.774Z,21.80
2022-08-18T05:18:43.905Z,21.90
2022-08-18T05:21:15.860Z,21.90
2022-08-18T05:23:43.278Z,21.90
2022-08-18T05:26:10.890Z,21.90
2022-08-18T05:28:37.815Z,21.90
2022-08-18T05:31:13.973Z,22.00
2022-08-18T05:33:41.353Z,22.00
2022-08-18T05:36:23.539Z,21.90
2022-08-18T05:38:56.410Z,21.90
2022-08-18T05:41:25.697Z,21.90
2022-08-18T05:43:52.658Z,21.90
2022-08-18T05:46:21.772Z,22.00
2022-08-18T05:48:48.890Z,22.10
2022-08-18T05:51:20.061Z,22.20
2022-08-18T05:54:05.526Z,22.30
2022-08-18T05:56:48.144Z,22.30
2022-08-18T05:59:17.708Z,22.40
2022-08-18T06:01:46.778Z,22.40
2022-08-18T06:04:23.744Z,22.50
2022-08-18T06:06:51.685Z,22.60
2022-08-18T06:09:18.522Z,22.70
2022-08-18T06:11:45.712Z,22.70
2022-08-18T06:14:13.557Z,22.90
2022-08-18T06:17:00.661Z,23.10
2022-08-18T06:19:30.300Z,23.20
2022-08-18T06:22:00.025Z,23.40
2022-08-18T06:24:31.427Z,23.50
2022-08-18T06:27:03.735Z,23.60
2022-08-18T06:29:49.583Z,23.80
2022-08-18T06:32:34.753Z,24.00
2022-08-18T06:35:09.664Z,24.20
2022-08-18T06:38:00.526Z,24.40
2022-08-18T06:40:27.850Z,25.00
2022-08-18T06:42:54.697Z,25.60
2022-08-18T06:45:26.187Z,25.80
2022-08-18T06:48:15.410Z,26.30
2022-08-18T06:51:02.892Z,27.50
2022-08-18T06:53:48.428Z,28.20
2022-08-18T06:56:41.398Z,28.10
2022-08-18T06:59:14.440Z,28.10
2022-08-18T07:01:41.705Z,27.60
2022-08-18T07:04:08.687Z,27.20
2022-08-18T07:06:35.485Z,27.20
2022-08-18T07:09:22.514Z,27.30
2022-08-18T07:11:58.666Z,27.40
2022-08-18T07:14:26.070Z,27.50
2022-08-18T07:17:06.445Z,27.60
2022-08-18T07:19:33.546Z,27.80
2022-08-18T07:22:18.512Z,28.40
2022-08-18T07:24:47.520Z,28.50
2022-08-18T07:27:18.499Z,28.70
2022-08-18T07:30:06.027Z,28.90
2022-08-18T07:32:35.910Z,29.40
2022-08-18T07:35:04.558Z,30.00
2022-08-18T07:37:35.037Z,30.50
2022-08-18T07:40:05.145Z,30.80
2022-08-18T07:42:54.426Z,29.90
2022-08-18T07:45:41.172Z,29.40
2022-08-18T07:48:37.160Z,28.80
2022-08-18T07:51:11.325Z,28.60
2022-08-18T07:53:55.893Z,28.60
2022-08-18T07:56:28.576Z,28.60
2022-08-18T07:59:06.234Z,28.60
2022-08-18T08:01:40.997Z,28.70
2022-08-18T08:04:26.626Z,28.90
2022-08-18T08:07:24.109Z,29.20
2022-08-18T08:09:57.351Z,29.50
2022-08-18T08:12:46.790Z,29.40
2022-08-18T08:15:17.735Z,29.20
2022-08-18T08:17:44.529Z,29.10
2022-08-18T08:20:11.265Z,29.00
2022-08-18T08:22:38.049Z,29.00
2022-08-18T08:25:44.646Z,29.30
2022-08-18T08:28:07.826Z,29.10
2022-08-18T08:30:38.226Z,29.20
2022-08-18T08:33:31.779Z,29.30
2022-08-18T08:36:05.738Z,29.30
2022-08-18T08:38:42.948Z,29.30
2022-08-18T08:41:15.204Z,29.40
2022-08-18T08:43:45.526Z,29.50
2022-08-18T08:46:23.388Z,29.30
2022-08-18T08:48:56.788Z,29.30
2022-08-18T08:51:33.913Z,29.20
2022-08-18T08:54:10.351Z,29.30
2022-08-18T08:56:40.624Z,29.40
2022-08-18T08:59:09.861Z,29.60
2022-08-18T09:01:37.120Z,29.70
2022-08-18T09:04:10.230Z,29.80
2022-08-18T09:06:37.155Z,29.90
2022-08-18T09:09:14.397Z,30.00
2022-08-18T09:11:47.624Z,30.20
2022-08-18T09:14:38.255Z,30.20
2022-08-18T09:17:08.292Z,30.20
2022-08-18T09:19:47.723Z,30.40
2022-08-18T09:22:33.471Z,30.40
2022-08-18T09:25:00.572Z,30.60
2022-08-18T09:28:09.336Z,30.70
2022-08-18T09:30:51.477Z,31.10
2022-08-18T09:33:24.675Z,32.20
2022-08-18T09:36:10.371Z,32.60
2022-08-18T09:38:58.098Z,32.90
2022-08-18T09:41:31.972Z,33.10
2022-08-18T09:44:21.403Z,32.90
2022-08-18T09:46:55.936Z,32.50
2022-08-18T09:49:27.085Z,32.30
2022-08-18T09:51:58.902Z,31.90
2022-08-18T09:54:31.090Z,31.90
2022-08-18T09:56:58.997Z,31.70
2022-08-18T09:59:31.829Z,31.50
2022-08-18T10:02:03.744Z,31.40
2022-08-18T10:04:49.318Z,31.40
2022-08-18T10:07:43.460Z,31.40
2022-08-18T10:11:01.449Z,31.40
2022-08-18T10:13:18.974Z,31.50
2022-08-18T10:19:04.525Z,31.50
2022-08-18T10:21:53.749Z,31.40
2022-08-18T10:24:36.087Z,31.20
2022-08-18T10:27:24.141Z,31.00
2022-08-18T10:29:52.983Z,30.90
2022-08-18T10:32:24.299Z,30.80
2022-08-18T10:34:56.874Z,30.40
2022-08-18T10:37:43.436Z,30.20
2022-08-18T10:40:13.210Z,30.10
2022-08-18T10:42:45.148Z,29.90
2022-08-18T10:45:25.709Z,29.90
2022-08-18T10:48:05.093Z,29.90
2022-08-18T10:50:42.668Z,29.80
2022-08-18T10:56:01.193Z,29.90
2022-08-18T10:58:34.803Z,29.90
2022-08-18T11:01:07.918Z,29.80
2022-08-18T11:03:55.816Z,29.90
2022-08-18T11:06:24.922Z,29.90
2022-08-18T11:08:55.170Z,29.80
2022-08-18T11:11:37.870Z,29.90
2022-08-18T11:14:15.484Z,29.90
2022-08-18T11:16:45.441Z,29.80
2022-08-18T11:19:14.336Z,29.80
2022-08-18T11:21:46.026Z,29.80
2022-08-18T11:24:18.588Z,29.80
2022-08-18T11:26:55.293Z,29.90
2022-08-18T11:29:25.545Z,30.00
2022-08-18T11:31:55.785Z,30.00
2022-08-18T11:34:30.845Z,30.10
2022-08-18T11:37:09.020Z,30.10
2022-08-18T11:39:45.955Z,30.10
2022-08-18T11:42:16.038Z,30.10
2022-08-18T11:44:53.855Z,30.10
2022-08-18T11:47:28.068Z,30.10
2022-08-18T11:50:04.398Z,30.20
2022-08-18T11:52:53.965Z,30.20
2022-08-18T11:55:33.688Z,30.20
2022-08-18T11:58:00.700Z,30.30
2022-08-18T12:00:36.329Z,30.30
2022-08-18T12:03:11.997Z,30.30
2022-08-18T12:05:58.888Z,30.20
2022-08-18T12:11:29.953Z,30.20
2022-08-18T12:14:31.301Z,30.20
2022-08-18T12:16:56.850Z,30.20
2022-08-18T12:19:31.143Z,30.10
2022-08-18T12:22:01.955Z,30.00
2022-08-18T12:24:39.486Z,29.90
2022-08-18T12:32:55.924Z,29.70
2022-08-18T12:35:32.637Z,29.70
2022-08-18T12:38:08.269Z,29.80
2022-08-18T12:40:41.047Z,29.80
2022-08-18T12:43:08.146Z,29.90
2022-08-18T12:45:37.948Z,30.00
2022-08-18T12:48:06.902Z,30.10
2022-08-18T12:50:42.614Z,30.20
2022-08-18T12:53:30.207Z,30.20
2022-08-18T12:56:13.046Z,30.20
2022-08-18T12:58:40.544Z,30.20
2022-08-18T13:01:07.668Z,30.20
2022-08-18T13:06:24.156Z,30.20
2022-08-18T13:08:57.373Z,30.10
2022-08-18T13:11:25.103Z,30.20
2022-08-18T13:13:56.452Z,30.20
2022-08-18T13:16:30.718Z,30.20
2022-08-18T13:19:06.594Z,30.20
2022-08-18T13:21:38.979Z,30.10
2022-08-18T13:24:07.777Z,30.10
2022-08-18T13:26:38.553Z,30.00
2022-08-18T13:29:10.270Z,30.00
2022-08-18T13:31:38.182Z,29.90
2022-08-18T13:34:11.649Z,29.90
2022-08-18T13:36:46.119Z,29.90
2022-08-18T13:39:16.401Z,29.90
2022-08-18T13:41:45.602Z,30.00
2022-08-18T13:44:18.786Z,30.00
2022-08-18T13:46:47.423Z,30.10
2022-08-18T13:49:23.593Z,30.10
2022-08-18T13:52:03.406Z,30.10
2022-08-18T13:54:36.469Z,30.20
2022-08-18T13:57:06.582Z,30.20
2022-08-18T13:59:34.224Z,30.20
2022-08-18T14:02:02.555Z,30.20
2022-08-18T14:04:29.637Z,30.20
2022-08-18T14:06:59.175Z,30.10
2022-08-18T14:09:37.386Z,30.10
2022-08-18T14:12:06.603Z,30.20
2022-08-18T14:14:34.181Z,30.20
2022-08-18T14:17:03.115Z,30.20
2022-08-18T14:19:48.497Z,30.20
2022-08-18T14:22:33.669Z,30.20
2022-08-18T14:25:22.180Z,30.10
2022-08-18T14:27:56.283Z,30.10
2022-08-18T14:30:24.454Z,30.10
2022-08-18T14:32:53.930Z,30.10
2022-08-18T14:35:33.655Z,30.10
2022-08-18T14:38:09.938Z,30.10
2022-08-18T14:40:38.843Z,30.00
2022-08-18T14:43:14.539Z,30.10
2022-08-18T14:45:48.867Z,30.00
2022-08-18T14:48:18.271Z,30.00
2022-08-18T14:50:49.226Z,30.00
2022-08-18T14:53:17.416Z,29.90
2022-08-18T14:55:47.066Z,29.90
2022-08-18T14:58:16.581Z,29.90
2022-08-18T15:00:53.723Z,29.80
2022-08-18T15:03:22.126Z,29.80
2022-08-18T15:05:57.806Z,29.80
2022-08-18T15:08:26.297Z,29.80
2022-08-18T15:10:53.877Z,29.80
2022-08-18T15:13:20.958Z,29.70
2022-08-18T15:15:53.735Z,29.70
2022-08-18T15:18:22.382Z,29.70
2022-08-18T15:21:10.506Z,29.60
2022-08-18T15:24:20.308Z,29.60
2022-08-18T15:26:51.471Z,29.50
2022-08-18T15:29:19.127Z,29.40
2022-08-18T15:31:50.778Z,29.40
2022-08-18T15:34:20.753Z,29.40
2022-08-18T15:36:47.762Z,29.30
2022-08-18T15:39:15.328Z,29.30
2022-08-18T15:44:22.237Z,29.20
2022-08-18T15:46:53.213Z,29.20
2022-08-18T15:49:21.759Z,29.20
2022-08-18T15:51:50.433Z,29.10
2022-08-18T15:54:19.718Z,29.10
2022-08-18T15:56:55.860Z,29.00
2022-08-18T15:59:26.933Z,29.00
2022-08-18T16:02:02.202Z,29.00
2022-08-18T16:04:29.024Z,29.00
2022-08-18T16:06:56.287Z,28.90
2022-08-18T16:09:23.128Z,28.90
2022-08-18T16:11:50.058Z,28.80
2022-08-18T16:14:17.047Z,28.80
2022-08-18T16:16:43.972Z,28.80
2022-08-18T16:19:10.957Z,28.80
2022-08-18T16:21:40.533Z,28.80
2022-08-18T16:24:07.681Z,28.70
2022-08-18T16:26:34.467Z,28.70
2022-08-18T16:29:02.008Z,28.60
2022-08-18T16:31:29.478Z,28.60
2022-08-18T16:33:57.978Z,28.50
2022-08-18T16:36:27.783Z,28.50
2022-08-18T16:38:58.130Z,28.40
2022-08-18T16:41:26.573Z,28.40
2022-08-18T16:43:53.604Z,28.30
2022-08-18T16:46:23.561Z,28.20
2022-08-18T16:48:50.448Z,28.10
2022-08-18T16:51:18.828Z,28.10
2022-08-18T16:53:47.287Z,28.00
2022-08-18T16:56:15.305Z,27.90
2022-08-18T16:59:00.751Z,27.80
2022-08-18T17:01:49.101Z,27.70
2022-08-18T17:04:20.827Z,27.60
2022-08-18T17:06:48.611Z,27.60
2022-08-18T17:09:15.989Z,27.50
2022-08-18T17:11:51.689Z,27.50
2022-08-18T17:14:20.677Z,27.40
2022-08-18T17:16:48.814Z,27.30
2022-08-18T17:19:15.718Z,27.30
2022-08-18T17:21:43.204Z,27.20
2022-08-18T17:24:11.358Z,27.10
2022-08-18T17:26:48.333Z,27.10
2022-08-18T17:29:26.221Z,26.90
2022-08-18T17:31:56.561Z,26.90
2022-08-18T17:34:27.502Z,26.80
2022-08-18T17:36:56.238Z,26.70
2022-08-18T17:39:28.719Z,26.60
2022-08-18T17:42:13.826Z,26.50
2022-08-18T17:44:46.307Z,26.30
2022-08-18T17:47:23.223Z,26.20
2022-08-18T17:50:27.501Z,26.10
2022-08-18T17:53:05.522Z,25.90
2022-08-18T17:55:44.426Z,25.90
2022-08-18T17:58:26.541Z,25.90
2022-08-18T18:00:53.493Z,25.80
2022-08-18T18:03:20.515Z,25.70
2022-08-18T18:05:50.001Z,25.60
2022-08-18T18:08:17.240Z,25.60
2022-08-18T18:13:33.193Z,25.60
2022-08-18T18:16:01.633Z,25.50
2022-08-18T18:18:41.406Z,25.50
2022-08-18T18:21:14.338Z,25.40
2022-08-18T18:23:43.113Z,25.30
2022-08-18T18:26:18.967Z,25.30
2022-08-18T18:28:46.670Z,25.20
2022-08-18T18:31:20.833Z,25.00
2022-08-18T18:33:55.012Z,24.90
2022-08-18T18:36:33.003Z,24.90
2022-08-18T18:39:10.670Z,24.80
2022-08-18T18:41:40.102Z,24.70
2022-08-18T18:44:11.566Z,24.60
2022-08-18T18:46:53.116Z,24.60
2022-08-18T18:49:35.537Z,24.50
2022-08-18T18:52:02.668Z,24.50
2022-08-18T18:54:56.965Z,24.40
2022-08-18T18:57:32.159Z,24.40
2022-08-18T19:00:13.406Z,24.40
2022-08-18T19:02:42.254Z,24.30
2022-08-18T19:05:09.092Z,24.30
2022-08-18T19:07:59.626Z,24.30
2022-08-18T19:10:29.564Z,24.20
2022-08-18T19:12:59.087Z,24.20
2022-08-18T19:15:27.085Z,24.10
2022-08-18T19:17:53.900Z,24.00
2022-08-18T19:20:26.811Z,24.00
2022-08-18T19:22:57.271Z,23.90
2022-08-18T19:25:33.578Z,23.90
2022-08-18T19:28:03.103Z,23.80
2022-08-18T19:30:30.235Z,23.80
2022-08-18T19:32:59.601Z,23.70
2022-08-18T19:35:35.375Z,23.70
2022-08-18T19:38:18.929Z,23.70
2022-08-18T19:40:52.799Z,23.60
2022-08-18T19:43:26.659Z,23.50
2022-08-18T19:45:56.332Z,23.40
2022-08-18T19:48:23.060Z,23.40
2022-08-18T19:50:55.912Z,23.40
2022-08-18T19:53:22.649Z,23.40
2022-08-18T19:56:07.768Z,23.30
2022-08-18T19:58:49.141Z,23.40
2022-08-18T20:01:48.663Z,23.30
2022-08-18T20:04:21.652Z,23.30
2022-08-18T20:06:59.088Z,23.20
2022-08-18T20:09:44.538Z,23.30
2022-08-18T20:12:30.268Z,23.20
2022-08-18T20:15:08.435Z,23.20
2022-08-18T20:17:55.210Z,23.10
2022-08-18T20:20:22.370Z,23.10
2022-08-18T20:22:55.172Z,23.10
2022-08-18T20:25:23.722Z,23.00
2022-08-18T20:27:52.822Z,23.00
2022-08-18T20:30:19.714Z,23.00
2022-08-18T20:33:05.634Z,23.00
2022-08-18T20:35:37.119Z,23.00
2022-08-18T20:38:22.680Z,22.90
2022-08-18T20:40:51.291Z,22.80
2022-08-18T20:43:27.569Z,22.80
2022-08-18T20:46:06.947Z,22.80
2022-08-18T20:48:52.725Z,22.90
2022-08-18T20:51:25.666Z,22.80
2022-08-18T20:54:01.993Z,22.80
2022-08-18T20:56:31.341Z,22.80
2022-08-18T20:59:25.774Z,22.80
2022-08-18T21:01:53.566Z,22.70
2022-08-18T21:04:32.798Z,22.70
2022-08-18T21:06:59.761Z,22.70
2022-08-18T21:09:39.013Z,22.80
2022-08-18T21:12:06.008Z,22.80
2022-08-18T21:14:32.783Z,22.80
2022-08-18T21:17:00.484Z,22.80
2022-08-18T21:19:28.452Z,22.80
2022-08-18T21:21:56.853Z,22.80
2022-08-18T21:24:27.184Z,22.90
2022-08-18T21:26:58.669Z,22.80
2022-08-18T21:29:39.191Z,22.80
2022-08-18T21:32:19.247Z,22.80
2022-08-18T21:34:46.606Z,22.80
2022-08-18T21:37:15.313Z,22.80
2022-08-18T21:39:49.783Z,22.70
2022-08-18T21:42:27.582Z,22.70
2022-08-18T21:45:01.051Z,22.60
2022-08-18T21:47:30.292Z,22.60
2022-08-18T21:50:11.179Z,22.60
2022-08-18T21:52:39.688Z,22.60
2022-08-18T21:55:08.413Z,22.60
2022-08-18T21:57:47.578Z,22.50
2022-08-18T22:00:18.068Z,22.50
2022-08-18T22:02:45.571Z,22.50
2022-08-18T22:05:12.666Z,22.50
2022-08-18T22:07:46.923Z,22.50
2022-08-18T22:10:46.762Z,22.50
2022-08-18T22:13:42.746Z,22.50
2022-08-18T22:16:25.902Z,22.50
2022-08-18T22:19:04.475Z,22.50
2022-08-18T22:21:54.016Z,22.40
2022-08-18T22:24:27.488Z,22.40
2022-08-18T22:27:06.976Z,22.30
2022-08-18T22:29:45.774Z,22.30
2022-08-18T22:32:13.655Z,22.20
2022-08-18T22:34:40.797Z,22.20
2022-08-18T22:37:12.928Z,22.20
2022-08-18T22:39:39.776Z,22.20
2022-08-18T22:42:07.111Z,22.10
2022-08-18T22:44:34.133Z,22.10
2022-08-18T22:47:01.137Z,22.00
2022-08-18T22:49:28.131Z,22.00
2022-08-18T22:51:55.133Z,21.90
2022-08-18T22:54:22.786Z,21.90
2022-08-18T22:56:56.732Z,21.80
2022-08-18T22:59:26.992Z,21.80
2022-08-18T23:01:54.582Z,21.80
2022-08-18T23:04:22.801Z,21.70
2022-08-18T23:06:52.739Z,21.70
2022-08-18T23:09:20.873Z,21.70
2022-08-18T23:11:47.811Z,21.60
2022-08-18T23:14:14.616Z,21.60
2022-08-18T23:16:45.402Z,21.60
2022-08-18T23:19:13.330Z,21.50
2022-08-18T23:21:40.427Z,21.50
2022-08-18T23:24:08.119Z,21.50
2022-08-18T23:26:35.094Z,21.50
2022-08-18T23:29:03.133Z,21.40
2022-08-18T23:31:30.378Z,21.40
2022-08-18T23:33:57.659Z,21.40
2022-08-18T23:36:24.466Z,21.40
2022-08-18T23:38:51.241Z,21.40
2022-08-18T23:41:18.106Z,21.40
2022-08-18T23:43:48.153Z,21.40
2022-08-18T23:46:17.105Z,21.40
2022-08-18T23:48:49.672Z,21.40
2022-08-18T23:51:24.011Z,21.40
2022-08-18T23:53:52.396Z,21.30
2022-08-18T23:56:19.833Z,21.20
2022-08-18T23:58:56.311Z,21.20
